Time;durP1;ratioP1;P1;durP2;ratioP2;P2;SDS_P1;SDS_P2;PMS_P1;PMS_P2;Temp;Humidity;BMP_temperature;BMP_pressure;BME280_temperature;BME280_humidity;BME280_pressure;Samples;Min_cycle;Max_cycle;Signal;HPM_P1;HPM_P2
2022/06/23 00:01:17;;;;;;;2.78;0.60;;;16.30;99.90;;;;;;5049092;28;20033;-44
2022/06/23 00:03:44;;;;;;;1.42;0.40;;;16.30;99.90;;;;;;5052688;28;20040;-47
2022/06/23 00:06:29;;;;;;;1.30;0.40;;;16.30;99.90;;;;;;5054613;28;20412;-44
2022/06/23 00:08:55;;;;;;;1.08;0.50;;;16.20;99.90;;;;;;5044692;28;20047;-46
2022/06/23 00:11:25;;;;;;;1.08;0.40;;;16.20;99.90;;;;;;5018360;28;20033;-45
2022/06/23 00:13:54;;;;;;;0.98;0.35;;;16.20;99.90;;;;;;5051083;28;20053;-47
2022/06/23 00:16:27;;;;;;;1.00;0.40;;;16.20;99.90;;;;;;5047656;28;20037;-45
2022/06/23 00:18:53;;;;;;;1.35;0.70;;;16.10;99.90;;;;;;5054615;28;20120;-44
2022/06/23 00:21:27;;;;;;;0.60;0.40;;;16.10;99.90;;;;;;5048764;28;20410;-46
2022/06/23 00:24:00;;;;;;;1.67;0.63;;;16.10;99.90;;;;;;5050433;28;20087;-47
2022/06/23 00:26:27;;;;;;;;;;;16.10;99.90;;;;;;5053537;28;20055;-45
2022/06/23 00:29:14;;;;;;;1.02;0.52;;;16.00;99.90;;;;;;5054228;28;19975;-45
2022/06/23 00:31:45;;;;;;;0.98;0.60;;;16.00;99.90;;;;;;5048785;28;20131;-45
2022/06/23 00:34:24;;;;;;;2.22;0.80;;;16.00;99.90;;;;;;5047071;28;20039;-47
2022/06/23 00:36:54;;;;;;;1.27;0.70;;;16.00;99.90;;;;;;5056966;28;20135;-49
2022/06/23 00:39:58;;;;;;;1.38;1.05;;;16.00;99.90;;;;;;5053460;28;20063;-45
2022/06/23 00:42:23;;;;;;;;;;;16.00;99.90;;;;;;5021883;28;20464;-45
2022/06/23 00:45:13;;;;;;;1.00;0.77;;;15.80;99.90;;;;;;5064249;28;19924;-46
2022/06/23 00:47:50;;;;;;;1.35;0.80;;;15.90;99.90;;;;;;5054633;28;20053;-46
2022/06/23 00:50:44;;;;;;;2.22;0.68;;;15.90;99.90;;;;;;5053303;28;20338;-47
2022/06/23 00:53:12;;;;;;;;;;;15.90;99.90;;;;;;5045381;28;20065;-45
2022/06/23 00:55:52;;;;;;;1.80;0.90;;;15.80;99.90;;;;;;5057325;28;19951;-44
2022/06/23 00:58:30;;;;;;;0.90;0.50;;;15.80;99.90;;;;;;5057299;28;20044;-44
2022/06/23 01:01:11;;;;;;;1.45;0.80;;;15.80;99.90;;;;;;5061358;28;20120;-47
2022/06/23 01:03:46;;;;;;;0.73;0.63;;;15.80;99.90;;;;;;5058075;28;20036;-48
2022/06/23 01:06:27;;;;;;;1.15;0.70;;;15.80;99.90;;;;;;5053246;28;20040;-48
2022/06/23 01:09:18;;;;;;;1.77;0.40;;;15.80;99.90;;;;;;5055947;28;20036;-47
2022/06/23 01:11:56;;;;;;;1.10;0.93;;;15.70;99.90;;;;;;5048717;28;20041;-45
2022/06/23 01:14:27;;;;;;;0.80;0.50;;;15.70;99.90;;;;;;5050757;28;20157;-44
2022/06/23 01:17:05;;;;;;;1.02;0.60;;;15.70;99.90;;;;;;5040254;28;20048;-45
2022/06/23 01:20:01;;;;;;;1.13;0.50;;;15.70;99.90;;;;;;5058613;28;20045;-46
2022/06/23 01:22:45;;;;;;;1.42;0.85;;;15.60;99.90;;;;;;5050793;28;20705;-48
2022/06/23 01:25:48;;;;;;;1.35;0.50;;;15.60;99.90;;;;;;5048289;28;20045;-46
2022/06/23 01:28:15;;;;;;;0.60;0.53;;;15.60;99.90;;;;;;5055011;28;20044;-44
2022/06/23 01:31:04;;;;;;;2.03;1.00;;;15.60;99.90;;;;;;5051575;28;20048;-44
2022/06/23 01:33:57;;;;;;;1.67;1.00;;;15.60;99.90;;;;;;5057391;28;20074;-45
2022/06/23 01:36:40;;;;;;;1.20;1.10;;;15.60;99.90;;;;;;5056416;28;20044;-49
2022/06/23 01:39:37;;;;;;;1.35;0.90;;;15.60;99.90;;;;;;5050910;28;20037;-44
2022/06/23 01:42:16;;;;;;;2.10;1.27;;;15.60;99.90;;;;;;5052601;28;20047;-43
2022/06/23 01:44:51;;;;;;;1.70;1.30;;;15.50;99.90;;;;;;5055137;28;20457;-43
2022/06/23 01:47:46;;;;;;;1.92;1.10;;;15.60;99.90;;;;;;5053860;28;20102;-43
2022/06/23 01:50:18;;;;;;;1.45;1.00;;;15.60;99.90;;;;;;5051244;28;20048;-45
2022/06/23 01:52:47;;;;;;;1.52;1.00;;;15.50;99.90;;;;;;5056032;28;20040;-42
2022/06/23 01:55:23;;;;;;;2.65;1.17;;;15.50;99.90;;;;;;5057671;28;20449;-44
2022/06/23 01:58:07;;;;;;;1.40;1.30;;;15.50;99.90;;;;;;5050291;28;20577;-43
2022/06/23 02:00:40;;;;;;;1.63;1.38;;;15.50;99.90;;;;;;5053432;28;20095;-44
2022/06/23 02:03:30;;;;;;;2.55;0.80;;;15.50;99.90;;;;;;5036191;28;20553;-42
2022/06/23 02:06:05;;;;;;;1.83;1.00;;;15.50;99.90;;;;;;5060903;28;20036;-43
2022/06/23 02:08:52;;;;;;;1.92;1.17;;;15.50;99.90;;;;;;5058661;28;20040;-42
2022/06/23 02:11:33;;;;;;;2.35;1.17;;;15.50;99.90;;;;;;5052202;28;20044;-45
2022/06/23 02:14:43;;;;;;;2.63;1.17;;;15.50;99.90;;;;;;5051028;28;20108;-43
2022/06/23 02:17:27;;;;;;;2.50;1.33;;;15.50;99.90;;;;;;5057264;28;20029;-43
2022/06/23 02:19:55;;;;;;;1.70;0.60;;;15.50;99.90;;;;;;5061716;28;20372;-47
2022/06/23 02:22:37;;;;;;;1.27;0.80;;;15.50;99.90;;;;;;5046470;28;20033;-42
2022/06/23 02:25:31;;;;;;;1.00;0.60;;;15.50;99.90;;;;;;5046052;28;20490;-42
2022/06/23 02:28:15;;;;;;;1.10;0.80;;;15.50;99.90;;;;;;5053911;28;20499;-43
2022/06/23 02:30:50;;;;;;;2.50;1.15;;;15.50;99.90;;;;;;5045765;28;20047;-43
2022/06/23 02:33:34;;;;;;;1.05;0.85;;;15.50;99.90;;;;;;5055868;28;20051;-44
2022/06/23 02:36:24;;;;;;;2.30;1.75;;;15.50;99.90;;;;;;5056039;28;20040;-43
2022/06/23 02:38:57;;;;;;;1.00;0.90;;;15.50;99.90;;;;;;5048428;28;20679;-47
2022/06/23 02:41:34;;;;;;;1.55;1.10;;;15.50;99.90;;;;;;5050106;28;20414;-45
2022/06/23 02:44:19;;;;;;;1.52;1.33;;;15.50;99.90;;;;;;5053760;28;20483;-45
2022/06/23 02:46:44;;;;;;;2.60;1.67;;;15.50;99.90;;;;;;5060009;28;20048;-45
2022/06/23 02:49:22;;;;;;;1.63;1.52;;;15.50;99.90;;;;;;5052793;28;20407;-43
2022/06/23 02:52:26;;;;;;;2.35;1.30;;;15.50;99.90;;;;;;5037292;28;20033;-45
2022/06/23 02:55:29;;;;;;;2.88;1.02;;;15.50;99.90;;;;;;5030104;28;20131;-44
2022/06/23 02:58:12;;;;;;;2.03;1.67;;;15.50;99.90;;;;;;5031400;28;20095;-44
2022/06/23 03:00:56;;;;;;;2.85;1.88;;;15.50;99.90;;;;;;5048996;28;20403;-44
2022/06/23 03:03:44;;;;;;;2.00;1.90;;;15.50;99.90;;;;;;5033184;28;20048;-42
2022/06/23 03:06:45;;;;;;;3.03;2.15;;;15.50;99.90;;;;;;5047468;28;20538;-42
2022/06/23 03:09:22;;;;;;;4.18;2.50;;;15.50;99.90;;;;;;5047432;28;20080;-47
2022/06/23 03:12:14;;;;;;;2.35;1.40;;;15.50;99.90;;;;;;5047827;28;20051;-42
2022/06/23 03:14:45;;;;;;;2.45;2.08;;;15.50;99.90;;;;;;5055862;28;20048;-45
2022/06/23 03:17:19;;;;;;;2.47;2.28;;;15.50;99.90;;;;;;5053983;28;20037;-43
2022/06/23 03:20:03;;;;;;;2.47;2.15;;;15.50;99.90;;;;;;5049585;28;20156;-44
2022/06/23 03:23:09;;;;;;;2.42;2.20;;;15.50;99.90;;;;;;5037351;28;20063;-42
2022/06/23 03:26:07;;;;;;;2.42;2.22;;;15.50;99.90;;;;;;5054004;28;20491;-43
2022/06/23 03:28:46;;;;;;;2.20;1.98;;;15.50;99.90;;;;;;5051230;28;20053;-43
2022/06/23 03:31:16;;;;;;;3.08;2.30;;;15.50;99.90;;;;;;5043769;28;20048;-42
2022/06/23 03:33:48;;;;;;;3.83;2.88;;;15.50;99.90;;;;;;5055705;28;20083;-45
2022/06/23 03:36:30;;;;;;;2.78;2.58;;;15.50;99.90;;;;;;5050249;28;20065;-42
2022/06/23 03:42:09;;;;;;;2.50;2.30;;;15.50;99.90;;;;;;5044959;28;20442;-42
2022/06/23 03:45:07;;;;;;;3.90;2.53;;;15.50;99.90;;;;;;5044347;28;20044;-43
2022/06/23 03:47:48;;;;;;;3.40;2.70;;;15.50;99.90;;;;;;5050236;28;20194;-44
2022/06/23 03:50:39;;;;;;;2.83;2.40;;;15.50;99.90;;;;;;5047380;28;20428;-44
2022/06/23 03:53:29;;;;;;;3.08;2.55;;;15.50;99.90;;;;;;5054658;28;20093;-44
2022/06/23 03:55:57;;;;;;;2.97;2.63;;;15.50;99.90;;;;;;5044038;28;20045;-43
2022/06/23 03:58:33;;;;;;;3.30;3.00;;;15.50;99.90;;;;;;5047847;28;20106;-42
2022/06/23 04:01:11;;;;;;;3.10;2.80;;;15.50;99.90;;;;;;5053379;28;20037;-42
2022/06/23 04:03:50;;;;;;;3.25;2.55;;;15.50;99.90;;;;;;5055974;28;20114;-44
2022/06/23 04:06:21;;;;;;;4.28;2.70;;;15.60;99.90;;;;;;5045930;28;20037;-43
2022/06/23 04:09:00;;;;;;;3.13;2.33;;;15.60;99.90;;;;;;5048759;28;20767;-43
2022/06/23 04:11:43;;;;;;;3.15;2.85;;;15.60;99.90;;;;;;5052762;28;20502;-43
2022/06/23 04:14:28;;;;;;;2.90;2.40;;;15.60;99.90;;;;;;5048836;28;20033;-43
2022/06/23 04:17:08;;;;;;;2.55;2.35;;;15.60;99.90;;;;;;5047659;28;20043;-45
2022/06/23 04:19:35;;;;;;;4.20;2.85;;;15.60;99.90;;;;;;5031186;28;20080;-43
2022/06/23 04:22:10;;;;;;;3.15;2.80;;;15.60;99.90;;;;;;5054653;28;20494;-45
2022/06/23 04:24:41;;;;;;;3.92;3.53;;;15.70;99.90;;;;;;5060608;28;20048;-43
2022/06/23 04:27:18;;;;;;;4.25;3.85;;;15.70;99.90;;;;;;5050910;28;20052;-43
2022/06/23 04:29:49;;;;;;;3.92;3.53;;;15.70;99.90;;;;;;5052831;28;20081;-44
2022/06/23 04:32:20;;;;;;;5.80;4.05;;;15.70;99.90;;;;;;5053150;28;20037;-43
2022/06/23 04:35:07;;;;;;;5.07;4.28;;;15.80;99.90;;;;;;5054166;28;20424;-43
2022/06/23 04:37:36;;;;;;;4.60;4.20;;;15.80;99.90;;;;;;5051354;28;20032;-45
2022/06/23 04:40:25;;;;;;;4.10;3.80;;;15.80;99.90;;;;;;5049938;28;20693;-44
2022/06/23 04:43:03;;;;;;;4.28;3.97;;;15.90;99.90;;;;;;5054160;28;20044;-43
2022/06/23 04:45:38;;;;;;;4.40;3.80;;;15.90;99.90;;;;;;5049953;28;20390;-43
2022/06/23 04:48:12;;;;;;;6.60;4.80;;;15.90;99.90;;;;;;5052216;28;20257;-43
2022/06/23 04:50:41;;;;;;;4.93;4.57;;;16.00;99.90;;;;;;5045852;28;20332;-45
2022/06/23 04:53:17;;;;;;;5.60;5.10;;;16.00;99.90;;;;;;5052593;28;20058;-44
2022/06/23 04:55:58;;;;;;;4.60;4.20;;;16.00;99.90;;;;;;5049130;28;20044;-44
2022/06/23 04:58:25;;;;;;;4.03;3.70;;;16.00;99.90;;;;;;5056180;28;20045;-43
2022/06/23 05:00:53;;;;;;;4.78;4.35;;;16.10;99.90;;;;;;5050594;28;20440;-44
2022/06/23 05:03:36;;;;;;;4.43;3.90;;;16.10;99.90;;;;;;5045456;28;20037;-43
2022/06/23 05:06:28;;;;;;;4.47;4.03;;;16.10;99.90;;;;;;5050780;28;20079;-44
2022/06/23 05:09:16;;;;;;;6.43;3.65;;;16.10;99.90;;;;;;5039184;28;20068;-44
2022/06/23 05:11:49;;;;;;;4.07;3.58;;;16.10;99.90;;;;;;5052528;28;20036;-44
2022/06/23 05:14:42;;;;;;;4.88;3.80;;;16.10;99.90;;;;;;5049540;28;20095;-43
2022/06/23 05:17:18;;;;;;;4.55;4.00;;;16.20;99.90;;;;;;5049490;28;20037;-43
2022/06/23 05:19:45;;;;;;;5.00;4.18;;;16.30;99.90;;;;;;5049447;28;20033;-45
2022/06/23 05:22:25;;;;;;;3.85;3.50;;;16.30;99.90;;;;;;5054783;28;20037;-43
2022/06/23 05:24:52;;;;;;;4.75;2.67;;;17.00;99.90;;;;;;5056266;28;20029;-43
2022/06/23 05:27:28;;;;;;;4.88;3.25;;;18.10;99.90;;;;;;5043069;28;20061;-44
2022/06/23 05:30:28;;;;;;;4.05;3.25;;;19.30;99.90;;;;;;5055115;28;20114;-44
2022/06/23 05:33:19;;;;;;;3.20;2.90;;;20.00;99.90;;;;;;5042193;28;20422;-43
2022/06/23 05:35:51;;;;;;;4.30;3.10;;;20.00;99.90;;;;;;5058878;28;20123;-43
2022/06/23 05:38:39;;;;;;;3.47;2.70;;;19.90;99.90;;;;;;5054213;28;20518;-45
2022/06/23 05:41:25;;;;;;;4.30;2.80;;;20.20;99.90;;;;;;5054605;28;20037;-43
2022/06/23 05:43:54;;;;;;;4.93;2.88;;;20.50;99.90;;;;;;5047222;28;20033;-44
2022/06/23 05:46:23;;;;;;;2.55;1.92;;;20.60;99.90;;;;;;5057957;28;20396;-44
2022/06/23 05:49:01;;;;;;;2.67;2.00;;;20.60;99.90;;;;;;5053975;28;20131;-44
2022/06/23 05:51:40;;;;;;;3.83;2.10;;;20.50;99.90;;;;;;5043773;28;20331;-44
2022/06/23 05:54:06;;;;;;;2.53;1.88;;;20.40;99.90;;;;;;5051221;28;20049;-44
2022/06/23 05:57:06;;;;;;;3.00;2.38;;;20.20;99.90;;;;;;5050767;28;20032;-45
2022/06/23 05:59:53;;;;;;;2.33;1.90;;;20.00;99.90;;;;;;5044173;28;20049;-47
2022/06/23 06:02:37;;;;;;;4.68;2.40;;;19.90;99.90;;;;;;5055094;28;20187;-49
2022/06/23 06:05:03;;;;;;;3.28;2.45;;;19.70;99.90;;;;;;5053794;28;20081;-46
2022/06/23 06:07:36;;;;;;;2.25;1.92;;;19.50;99.90;;;;;;5038372;28;20112;-44
2022/06/23 06:10:06;;;;;;;;;;;19.40;99.90;;;;;;5050611;28;20043;-44
2022/06/23 06:12:36;;;;;;;4.70;2.67;;;19.30;99.90;;;;;;5047495;28;19917;-44
2022/06/23 06:15:25;;;;;;;5.45;3.10;;;19.20;99.90;;;;;;5048705;28;20482;-44
2022/06/23 06:17:56;;;;;;;5.38;2.72;;;19.20;99.90;;;;;;5040777;28;20041;-44
2022/06/23 06:20:24;;;;;;;4.28;3.17;;;19.10;99.90;;;;;;5049266;28;20547;-45
2022/06/23 06:22:53;;;;;;;3.92;2.67;;;19.10;99.90;;;;;;5049809;28;20126;-46
2022/06/23 06:25:38;;;;;;;5.80;3.20;;;19.00;99.90;;;;;;5053697;28;20098;-44
2022/06/23 06:28:12;;;;;;;12.13;4.25;;;19.00;99.90;;;;;;5048116;28;20576;-44
2022/06/23 06:30:42;;;;;;;11.38;3.38;;;19.00;99.90;;;;;;5055627;28;20049;-44
2022/06/23 06:33:24;;;;;;;8.93;3.88;;;19.00;99.90;;;;;;5049297;28;20037;-44
2022/06/23 06:35:54;;;;;;;7.38;3.75;;;19.00;99.90;;;;;;5038591;28;20076;-47
2022/06/23 06:38:21;;;;;;;9.48;3.58;;;19.00;99.90;;;;;;5047240;28;20041;-45
2022/06/23 06:40:51;;;;;;;6.85;3.65;;;19.00;99.90;;;;;;5056178;28;20041;-44
2022/06/23 06:43:25;;;;;;;4.70;3.17;;;19.10;99.90;;;;;;5047622;28;20116;-44
2022/06/23 06:45:52;;;;;;;8.38;3.55;;;19.10;99.90;;;;;;5046451;28;20048;-44
2022/06/23 06:48:31;;;;;;;7.00;3.90;;;19.10;99.90;;;;;;5037714;28;20061;-45
2022/06/23 06:51:10;;;;;;;5.97;4.53;;;19.10;99.90;;;;;;5052632;28;20045;-45
2022/06/23 06:53:46;;;;;;;5.80;4.00;;;19.20;99.90;;;;;;5041325;28;20037;-44
2022/06/23 06:56:22;;;;;;;6.97;4.13;;;19.20;99.90;;;;;;5042881;28;20045;-45
2022/06/23 06:58:58;;;;;;;6.35;3.95;;;19.20;99.90;;;;;;5057984;28;20045;-48
2022/06/23 07:01:25;;;;;;;4.88;3.40;;;19.30;99.90;;;;;;5041750;28;20123;-45
2022/06/23 07:03:53;;;;;;;5.85;4.40;;;19.30;99.90;;;;;;5045954;28;20103;-44
2022/06/23 07:06:43;;;;;;;12.02;4.72;;;19.40;99.90;;;;;;5049504;28;20063;-43
2022/06/23 07:09:25;;;;;;;4.85;4.22;;;19.40;99.90;;;;;;5045694;28;20395;-46
2022/06/23 07:12:00;;;;;;;6.30;4.90;;;19.40;99.90;;;;;;5047669;28;20427;-44
2022/06/23 07:14:33;;;;;;;5.95;4.75;;;19.50;99.90;;;;;;5056017;28;20043;-44
2022/06/23 07:17:23;;;;;;;5.32;4.82;;;19.50;99.90;;;;;;5042453;28;20096;-44
2022/06/23 07:19:49;;;;;;;7.10;4.97;;;19.60;99.90;;;;;;5024368;28;20041;-44
2022/06/23 07:22:21;;;;;;;5.78;4.63;;;19.60;99.90;;;;;;5034832;28;20049;-46
2022/06/23 07:24:49;;;;;;;5.75;4.55;;;19.70;99.90;;;;;;5039192;28;20383;-46
2022/06/23 07:27:44;;;;;;;6.20;4.47;;;19.70;99.90;;;;;;5040994;28;20063;-46
2022/06/23 07:30:19;;;;;;;5.70;5.10;;;19.80;99.90;;;;;;5043250;28;20037;-49
2022/06/23 07:33:15;;;;;;;7.20;5.25;;;19.90;99.90;;;;;;5052039;28;20041;-46
2022/06/23 07:35:57;;;;;;;6.45;4.68;;;19.90;99.90;;;;;;5045066;28;20127;-48
2022/06/23 07:38:38;;;;;;;4.85;4.35;;;20.00;99.90;;;;;;5022385;28;20052;-45
2022/06/23 07:41:18;;;;;;;7.55;4.85;;;20.10;99.90;;;;;;5040855;28;20171;-48
2022/06/23 07:43:54;;;;;;;7.88;5.40;;;20.10;99.90;;;;;;5052751;28;20040;-46
2022/06/23 07:46:20;;;;;;;5.35;4.15;;;20.20;99.90;;;;;;5049086;28;20100;-46
2022/06/23 07:48:46;;;;;;;7.35;4.43;;;20.20;99.90;;;;;;5050317;28;20135;-46
2022/06/23 07:51:13;;;;;;;6.47;4.68;;;20.20;99.90;;;;;;5048750;28;20136;-47
2022/06/23 07:53:43;;;;;;;7.88;4.80;;;20.30;99.90;;;;;;5033773;28;20037;-45
2022/06/23 07:56:13;;;;;;;5.38;4.70;;;20.40;99.90;;;;;;5035643;28;20033;-47
2022/06/23 07:58:42;;;;;;;7.20;4.40;;;20.40;99.90;;;;;;5040756;28;20030;-45
2022/06/23 08:01:18;;;;;;;7.05;5.13;;;20.50;99.90;;;;;;5025805;28;20061;-45
2022/06/23 08:03:59;;;;;;;5.50;3.72;;;20.60;99.90;;;;;;5038596;28;20036;-47
2022/06/23 08:06:26;;;;;;;5.10;4.30;;;20.70;99.90;;;;;;5027497;28;20038;-45
2022/06/23 08:08:56;;;;;;;6.40;4.15;;;20.70;99.90;;;;;;5041896;28;20045;-46
2022/06/23 08:14:13;;;;;;;5.97;4.80;;;20.90;99.90;;;;;;5038819;28;20041;-46
2022/06/23 08:16:51;;;;;;;6.18;4.60;;;20.90;99.90;;;;;;5030528;28;20037;-47
2022/06/23 08:19:29;;;;;;;6.60;4.07;;;21.00;99.90;;;;;;5016195;28;20091;-48
2022/06/23 08:22:01;;;;;;;8.90;4.32;;;21.10;99.90;;;;;;5030994;28;20127;-47
2022/06/23 08:24:27;;;;;;;5.38;4.50;;;21.10;99.90;;;;;;5049915;28;20510;-49
2022/06/23 08:27:07;;;;;;;6.50;4.60;;;21.20;99.90;;;;;;5041282;28;20043;-46
2022/06/23 08:29:49;;;;;;;9.93;5.00;;;21.30;99.90;;;;;;5039043;28;20487;-46
2022/06/23 08:32:15;;;;;;;9.63;4.85;;;21.40;99.90;;;;;;5035279;28;20076;-46
2022/06/23 08:35:07;;;;;;;8.50;5.45;;;21.40;99.90;;;;;;5041054;28;20494;-45
2022/06/23 08:37:50;;;;;;;7.40;4.50;;;21.50;99.90;;;;;;5023704;28;20040;-48
2022/06/23 08:40:23;;;;;;;7.10;4.57;;;21.60;99.90;;;;;;5030490;28;20399;-44
2022/06/23 08:43:07;;;;;;;6.30;4.60;;;21.70;99.90;;;;;;5049828;28;20048;-48
2022/06/23 08:45:50;;;;;;;8.50;5.18;;;21.80;99.90;;;;;;5043692;28;20123;-43
2022/06/23 08:48:25;;;;;;;;;;;21.90;99.90;;;;;;5044033;28;20052;-45
2022/06/23 08:50:56;;;;;;;4.90;4.40;;;21.90;99.90;;;;;;5052872;28;19960;-45
2022/06/23 08:53:34;;;;;;;9.38;4.68;;;21.90;99.90;;;;;;5048330;28;20395;-45
2022/06/23 08:56:06;;;;;;;8.18;4.32;;;22.00;99.90;;;;;;5045256;28;20036;-43
2022/06/23 08:58:57;;;;;;;5.90;3.75;;;22.10;99.90;;;;;;5039176;28;20040;-46
2022/06/23 09:01:27;;;;;;;6.00;4.50;;;22.20;99.90;;;;;;5045704;28;20032;-47
2022/06/23 09:04:08;;;;;;;14.48;4.65;;;22.30;99.90;;;;;;5047541;28;20045;-47
2022/06/23 09:06:50;;;;;;;8.82;4.82;;;22.40;99.90;;;;;;5047183;28;20041;-47
2022/06/23 09:09:42;;;;;;;7.40;4.20;;;22.40;99.90;;;;;;5046110;28;20045;-48
2022/06/23 09:12:20;;;;;;;9.13;3.90;;;22.60;99.90;;;;;;5049985;28;20040;-49
2022/06/23 09:15:00;;;;;;;7.88;3.85;;;22.70;99.90;;;;;;5038133;28;20045;-47
2022/06/23 09:17:35;;;;;;;6.20;3.60;;;22.70;99.90;;;;;;5046914;28;20037;-47
2022/06/23 09:20:12;;;;;;;8.25;4.10;;;22.80;99.90;;;;;;5044138;28;20365;-46
2022/06/23 09:23:03;;;;;;;9.15;4.18;;;22.90;99.90;;;;;;5040743;28;20042;-49
2022/06/23 09:25:48;;;;;;;6.07;3.50;;;23.00;99.90;;;;;;5055617;28;20051;-45
2022/06/23 09:28:15;;;;;;;6.95;3.50;;;23.00;99.90;;;;;;5055388;28;20544;-45
2022/06/23 09:31:05;;;;;;;6.75;3.50;;;23.10;99.90;;;;;;5046107;28;20049;-46
2022/06/23 09:33:55;;;;;;;6.07;3.20;;;23.20;99.90;;;;;;5052014;28;20505;-47
2022/06/23 09:36:21;;;;;;;6.93;3.58;;;23.30;99.90;;;;;;5050922;28;20625;-46
2022/06/23 09:39:13;;;;;;;7.72;3.25;;;23.40;99.90;;;;;;5047359;28;20083;-49
2022/06/23 09:41:58;;;;;;;3.53;2.40;;;23.40;99.90;;;;;;5069186;28;20037;-45
2022/06/23 09:44:35;;;;;;;3.53;2.20;;;23.50;99.90;;;;;;5051677;28;20089;-46
2022/06/23 09:47:00;;;;;;;3.97;2.53;;;23.60;99.90;;;;;;5049607;28;20084;-45
2022/06/23 09:49:26;;;;;;;4.05;2.80;;;23.70;99.90;;;;;;5039151;28;20081;-46
2022/06/23 09:52:31;;;;;;;6.63;2.63;;;23.70;99.90;;;;;;5053499;28;20036;-49
2022/06/23 09:55:14;;;;;;;4.85;2.20;;;23.90;99.90;;;;;;5047135;28;20055;-50
2022/06/23 09:57:52;;;;;;;4.60;2.20;;;23.90;99.90;;;;;;5049895;28;20043;-47
2022/06/23 10:00:39;;;;;;;3.70;1.73;;;24.00;99.90;;;;;;5040571;28;20128;-45
2022/06/23 10:03:20;;;;;;;5.78;1.83;;;24.00;99.90;;;;;;5051607;28;20061;-46
2022/06/23 10:05:55;;;;;;;4.38;1.65;;;24.20;99.90;;;;;;5062572;28;20045;-45
2022/06/23 10:08:39;;;;;;;4.05;1.70;;;24.30;99.90;;;;;;5037055;28;20383;-48
2022/06/23 10:11:22;;;;;;;5.80;1.95;;;24.30;99.90;;;;;;5051186;28;20486;-46
2022/06/23 10:14:12;;;;;;;2.88;1.35;;;24.40;99.90;;;;;;5049034;28;20529;-46
2022/06/23 10:17:05;;;;;;;4.50;1.60;;;24.50;99.90;;;;;;5041879;28;20123;-44
2022/06/23 10:19:55;;;;;;;5.63;1.55;;;24.60;99.90;;;;;;5038710;28;20049;-47
2022/06/23 10:22:30;;;;;;;6.22;1.35;;;24.70;99.90;;;;;;5055304;28;20045;-46
2022/06/23 10:25:11;;;;;;;5.30;1.40;;;24.70;99.90;;;;;;5057060;28;20045;-47
2022/06/23 10:27:56;;;;;;;5.47;1.45;;;24.90;99.90;;;;;;5059509;28;20127;-47
2022/06/23 10:30:56;;;;;;;2.92;1.10;;;25.00;99.90;;;;;;5054460;28;20052;-45
2022/06/23 10:33:46;;;;;;;2.40;1.00;;;25.10;99.90;;;;;;5057616;28;20045;-45
2022/06/23 10:36:27;;;;;;;2.63;1.10;;;25.20;99.90;;;;;;5059963;28;20044;-46
2022/06/23 10:39:24;;;;;;;2.70;0.90;;;25.20;99.90;;;;;;5055341;28;20119;-45
2022/06/23 10:42:14;;;;;;;2.35;0.98;;;25.40;99.90;;;;;;5052438;28;20474;-47
2022/06/23 10:45:07;;;;;;;4.22;1.10;;;25.50;99.90;;;;;;5055374;28;20119;-48
2022/06/23 10:47:48;;;;;;;2.67;0.90;;;25.60;99.90;;;;;;5057683;28;20075;-48
2022/06/23 10:50:16;;;;;;;2.15;0.90;;;25.60;99.90;;;;;;5058792;28;20033;-46
2022/06/23 10:53:19;;;;;;;4.10;0.77;;;25.70;99.90;;;;;;5056754;28;20496;-47
2022/06/23 10:56:16;;;;;;;2.95;0.80;;;25.80;99.90;;;;;;5052535;28;20032;-46
2022/06/23 10:58:41;;;;;;;6.32;0.70;;;25.90;99.90;;;;;;5056980;28;20040;-45
2022/06/23 11:01:44;;;;;;;2.53;0.90;;;26.00;99.90;;;;;;5059831;28;20612;-48
2022/06/23 11:04:26;;;;;;;2.20;0.73;;;26.10;99.90;;;;;;5056921;28;20098;-48
2022/06/23 11:07:06;;;;;;;5.47;1.00;;;26.20;99.90;;;;;;5054711;28;20051;-47
2022/06/23 11:09:41;;;;;;;5.47;0.70;;;26.30;99.90;;;;;;5058295;28;20486;-46
2022/06/23 11:12:41;;;;;;;3.88;0.88;;;26.30;99.90;;;;;;5054531;28;20040;-46
2022/06/23 11:15:19;;;;;;;4.10;0.80;;;26.40;99.90;;;;;;5049226;28;20057;-47
2022/06/23 11:18:03;;;;;;;2.58;0.70;;;26.40;99.90;;;;;;5059054;28;20068;-45
2022/06/23 11:20:47;;;;;;;3.55;0.63;;;26.60;99.90;;;;;;5058361;28;20044;-48
2022/06/23 11:23:45;;;;;;;2.55;0.65;;;26.70;99.90;;;;;;5037623;28;20407;-45
2022/06/23 11:26:48;;;;;;;2.92;0.60;;;26.70;99.90;;;;;;5044365;28;20174;-44
2022/06/23 11:29:45;;;;;;;2.97;0.63;;;26.80;99.90;;;;;;5035471;28;20055;-47
2022/06/23 11:32:47;;;;;;;1.65;0.90;;;26.90;99.90;;;;;;5053036;28;20036;-46
2022/06/23 11:35:54;;;;;;;4.75;0.60;;;27.00;99.90;;;;;;5059853;28;21191;-49
2022/06/23 11:38:35;;;;;;;7.13;0.60;;;27.10;99.90;;;;;;5054865;28;20045;-48
2022/06/23 11:41:20;;;;;;;3.00;0.60;;;27.10;99.90;;;;;;5055569;28;20053;-47
2022/06/23 11:44:08;;;;;;;2.88;0.50;;;27.20;99.90;;;;;;5033408;28;20055;-47
2022/06/23 11:46:42;;;;;;;2.47;0.50;;;27.30;99.90;;;;;;5053211;28;20040;-48
2022/06/23 11:49:19;;;;;;;2.15;0.50;;;27.40;99.90;;;;;;5049541;28;20438;-46
2022/06/23 11:52:05;;;;;;;3.17;0.50;;;27.40;99.90;;;;;;5044057;28;20529;-45
2022/06/23 11:54:51;;;;;;;7.63;0.85;;;27.50;99.90;;;;;;5054721;28;20048;-47
2022/06/23 11:57:48;;;;;;;4.78;0.65;;;27.60;99.90;;;;;;5043883;28;20045;-46
2022/06/23 12:00:17;;;;;;;3.58;0.70;;;27.70;99.90;;;;;;5046309;28;20041;-46
2022/06/23 12:03:04;;;;;;;3.15;0.60;;;27.80;99.80;;;;;;5046500;28;20482;-48
2022/06/23 12:05:57;;;;;;;3.58;0.70;;;27.90;98.90;;;;;;5043087;28;20045;-47
2022/06/23 12:08:48;;;;;;;4.47;0.70;;;27.90;97.60;;;;;;5048111;28;20049;-48
2022/06/23 12:11:13;;;;;;;1.83;0.50;;;28.00;96.80;;;;;;5038293;28;20072;-45
2022/06/23 12:13:40;;;;;;;3.38;0.50;;;28.00;96.40;;;;;;5047125;28;20086;-45
2022/06/23 12:16:06;;;;;;;3.50;0.60;;;28.10;96.20;;;;;;5044495;28;20067;-46
2022/06/23 12:18:36;;;;;;;3.85;0.60;;;28.10;95.40;;;;;;5051621;28;20041;-46
2022/06/23 12:21:21;;;;;;;2.85;0.50;;;28.20;94.70;;;;;;5049339;28;20391;-46
2022/06/23 12:24:11;;;;;;;1.77;0.40;;;28.30;95.30;;;;;;5052440;28;20071;-47
2022/06/23 12:26:44;;;;;;;5.05;0.50;;;28.30;94.00;;;;;;5054604;28;20039;-48
2022/06/23 12:29:39;;;;;;;3.95;0.50;;;28.40;93.60;;;;;;5051487;28;20380;-47
2022/06/23 12:32:16;;;;;;;3.33;0.50;;;28.50;92.60;;;;;;5038174;28;20048;-46
2022/06/23 12:35:02;;;;;;;4.05;0.60;;;28.60;91.90;;;;;;5051044;28;20128;-47
2022/06/23 12:37:49;;;;;;;3.75;0.45;;;28.70;92.50;;;;;;5054776;28;20052;-47
2022/06/23 12:40:35;;;;;;;5.03;0.70;;;28.70;92.30;;;;;;5040765;28;20032;-46
2022/06/23 12:43:25;;;;;;;2.67;0.47;;;28.80;92.10;;;;;;5049620;28;20360;-48
2022/06/23 12:46:06;;;;;;;2.53;0.80;;;28.90;91.30;;;;;;5054701;28;20140;-46
2022/06/23 12:48:58;;;;;;;4.22;0.40;;;29.00;90.50;;;;;;5055107;28;20053;-48
2022/06/23 12:51:56;;;;;;;1.80;0.45;;;29.10;90.70;;;;;;5051498;28;20128;-48
2022/06/23 12:54:45;;;;;;;3.30;0.45;;;29.10;87.30;;;;;;5050331;28;20507;-49
2022/06/23 12:57:28;;;;;;;2.35;0.43;;;29.20;88.70;;;;;;5047199;28;20047;-45
2022/06/23 12:59:58;;;;;;;;;;;29.20;85.50;;;;;;5045203;28;20039;-48
2022/06/23 13:02:37;;;;;;;2.72;0.50;;;29.30;88.30;;;;;;5042340;28;19924;-49
2022/06/23 13:05:18;;;;;;;2.88;0.50;;;29.30;86.60;;;;;;5047986;28;20051;-46
2022/06/23 13:08:01;;;;;;;2.13;0.40;;;29.40;82.80;;;;;;5032440;28;20038;-48
2022/06/23 13:11:02;;;;;;;2.90;0.52;;;29.50;83.80;;;;;;5049057;28;20052;-49
2022/06/23 13:13:40;;;;;;;3.03;0.50;;;29.60;83.50;;;;;;5030071;28;20098;-46
2022/06/23 13:16:27;;;;;;;2.75;0.40;;;29.60;81.00;;;;;;5050749;28;20079;-46
2022/06/23 13:19:05;;;;;;;4.63;0.65;;;29.70;82.30;;;;;;5032682;28;20040;-45
2022/06/23 13:21:33;;;;;;;6.50;0.57;;;29.70;81.30;;;;;;5049279;28;20041;-46
2022/06/23 13:24:04;;;;;;;4.68;0.60;;;29.80;80.00;;;;;;5035276;28;20037;-49
2022/06/23 13:26:44;;;;;;;3.25;0.40;;;29.90;81.00;;;;;;5053815;28;20174;-48
2022/06/23 13:29:15;;;;;;;3.60;0.50;;;29.90;80.30;;;;;;5050845;28;20040;-45
2022/06/23 13:32:10;;;;;;;4.43;0.55;;;30.00;79.10;;;;;;5050294;28;20044;-47
2022/06/23 13:35:08;;;;;;;7.00;0.60;;;30.10;79.20;;;;;;5042639;28;20074;-46
2022/06/23 13:37:41;;;;;;;3.58;0.50;;;30.10;79.10;;;;;;5041584;28;20091;-45
2022/06/23 13:40:34;;;;;;;5.72;0.45;;;30.20;76.90;;;;;;5032965;28;20084;-46
2022/06/23 13:43:16;;;;;;;1.88;0.30;;;30.20;76.50;;;;;;5038977;28;20041;-47
2022/06/23 13:45:54;;;;;;;3.30;0.40;;;30.30;76.00;;;;;;5033159;28;20091;-47
2022/06/23 13:48:39;;;;;;;6.18;0.50;;;30.30;75.20;;;;;;5038425;28;20045;-47
2022/06/23 13:51:33;;;;;;;12.70;0.88;;;30.40;75.60;;;;;;5044835;28;20037;-46
2022/06/23 13:54:23;;;;;;;7.00;0.70;;;30.50;75.90;;;;;;5033622;28;20399;-46
2022/06/23 13:57:01;;;;;;;1.63;0.45;;;30.50;75.00;;;;;;5030921;28;20506;-47
2022/06/23 13:59:47;;;;;;;3.00;0.50;;;30.60;74.00;;;;;;5043810;28;20043;-47
2022/06/23 14:02:26;;;;;;;3.38;0.50;;;30.70;72.60;;;;;;5041218;28;20072;-48